Sirius — V7KI6 — position and weather

sailwx.info

Track history (hours):
 
Tides and Currents Weather Stations Pressure Air Temp Water Temp Dewpoint Dewpoint Depression Visibility Wind Speed Wind Dir Waves Ship Positions

Sirius

Last reported at 2014-Jul-30 00:33 UTC. Time now 2014-Jul-30 01:02 UTC.
Position N 34°29' E 031°44'.

Length 178.1 m; beam 28.2 m; draft 11.5 m.

Type: Cargo ship. MMSI: 538090245.

Date/timePositionNaut miles runAvg speedWind from/ knotsBaromVisibWave heightAir tempDewpointWater temp
2014-Jul-30 00:33N 34°29' E 031°44'3919.3
2014-Jul-29 22:32N 34°30' E 030°57'7719.2
2014-Jul-29 18:32N 34°33' E 029°24'1919.2
2014-Jul-29 17:33N 34°33' E 029°01'35519.5
2014-Jul-28 23:20N 34°55' E 021°49'4333.7
2014-Jul-28 22:04N 35°30' E 021°21'25418.4
2014-Jul-28 08:16N 35°36' E 016°08'1318.1
2014-Jul-28 07:34N 35°38' E 015°53'1818.3
2014-Jul-28 06:33N 35°41' E 015°30'1918.8
2014-Jul-28 05:33N 35°44' E 015°08'1818.5
2014-Jul-28 04:34N 35°47' E 014°45'1110.8
2014-Jul-28 03:34N 35°49' E 014°32'0 0.4
2014-Jul-28 02:31N 35°49' E 014°33'0 0.0
2014-Jul-28 01:31N 35°49' E 014°33'0 0.0
2014-Jul-28 00:31N 35°49' E 014°33'0 0.0
2014-Jul-27 23:31N 35°49' E 014°33'0 0.0
2014-Jul-27 22:31N 35°49' E 014°33'0 0.0
2014-Jul-27 21:25N 35°49' E 014°33'0 0.0
2014-Jul-27 20:31N 35°49' E 014°33'0 0.0
2014-Jul-27 19:31N 35°49' E 014°33'0 0.0
2014-Jul-27 18:31N 35°49' E 014°33'0 0.0
2014-Jul-27 17:31N 35°49' E 014°33'0 0.0
2014-Jul-27 16:28N 35°49' E 014°33'0 0.0
2014-Jul-27 15:31N 35°49' E 014°33'0 0.0
2014-Jul-27 14:31N 35°49' E 014°33'0 0.0
2014-Jul-27 13:28N 35°49' E 014°33'0 0.0
2014-Jul-27 12:31N 35°49' E 014°33'0 0.0
2014-Jul-27 11:19N 35°49' E 014°33'0 0.0
2014-Jul-27 10:28N 35°49' E 014°33'0 0.0
2014-Jul-27 09:31N 35°49' E 014°33'0 0.0
2014-Jul-27 07:22N 35°49' E 014°33'4 0.6
2014-Jul-27 01:20N 35°49' E 014°37'2 0.7
2014-Jul-26 22:29N 35°51' E 014°39'0 0.0
2014-Jul-26 21:29N 35°51' E 014°39'5 5.1
2014-Jul-26 20:33N 35°49' E 014°33'1 0.7
2014-Jul-26 19:29N 35°49' E 014°33'0 0.0
2014-Jul-26 17:32N 35°49' E 014°33'0 0.0
2014-Jul-26 16:32N 35°49' E 014°33'0 0.0
2014-Jul-26 14:32N 35°49' E 014°33'0 0.0
2014-Jul-26 12:20N 35°49' E 014°33'1 1.4
2014-Jul-26 11:33N 35°49' E 014°34'4 4.4
2014-Jul-26 10:33N 35°51' E 014°39'0 0.0
2014-Jul-26 09:33N 35°51' E 014°39'0 0.1
2014-Jul-26 08:32N 35°51' E 014°39'0 0.0
2014-Jul-26 07:32N 35°51' E 014°39'0 0.1
2014-Jul-26 06:32N 35°50' E 014°39'0 0.0
2014-Jul-26 05:32N 35°50' E 014°39'0 0.1
2014-Jul-26 04:32N 35°51' E 014°39'0 0.1
2014-Jul-26 03:32N 35°51' E 014°39'0 0.1
2014-Jul-26 02:32N 35°51' E 014°39'0 0.1
2014-Jul-26 01:32N 35°51' E 014°39'0 0.0
2014-Jul-26 00:32N 35°51' E 014°39'0 0.0
2014-Jul-25 23:32N 35°51' E 014°39'0 0.0
2014-Jul-25 22:32N 35°51' E 014°39'0 0.0
2014-Jul-25 21:32N 35°51' E 014°39'0 0.0
2014-Jul-25 20:32N 35°51' E 014°39'0 0.0
2014-Jul-25 19:32N 35°51' E 014°39'2 1.8
2014-Jul-25 18:33N 35°49' E 014°38'1312.8
2014-Jul-25 17:33N 35°36' E 014°39'1515.2
2014-Jul-25 16:33N 35°21' E 014°41'1915.2
2014-Jul-25 15:17N 35°02' E 014°45'1215.5
2014-Jul-25 14:31N 34°50' E 014°47'3715.6
2014-Jul-25 12:07N 34°13' E 014°55'915.4
2014-Jul-25 11:33N 34°05' E 014°57'1515.3
2014-Jul-25 10:34N 33°50' E 015°00'1515.2
2014-Jul-25 09:33N 33°35' E 015°03'1515.3
2014-Jul-25 08:33N 33°20' E 015°06'1615.6
2014-Jul-25 07:33N 33°04' E 015°10'2215.6
2014-Jul-25 06:07N 32°42' E 015°14'915.5
2014-Jul-25 05:33N 32°33' E 015°15'1111.2
2014-Jul-25 04:34N 32°22' E 015°14'1 0.1
2014-Jul-24 22:30N 32°22' E 015°13'0 0.0
2014-Jul-24 21:33N 32°22' E 015°13'  
Track history (hours):
 
Tides and Currents Weather Stations Pressure Air Temp Water Temp Dewpoint Dewpoint Depression Visibility Wind Speed Wind Dir Waves Ship Positions

Sirius

Last reported at 2014-Jul-30 00:33 UTC. Time now 2014-Jul-30 01:02 UTC.
Position N 34°29' E 031°44'.

Length 178.1 m; beam 28.2 m; draft 11.5 m.

Type: Cargo ship. MMSI: 538090245.

Date/timePositionNaut miles runAvg speedWind from/ knotsBaromVisibWave heightAir tempDewpointWater temp
2014-Jul-30 00:33N 34°29' E 031°44'3919.3
2014-Jul-29 22:32N 34°30' E 030°57'7719.2
2014-Jul-29 18:32N 34°33' E 029°24'1919.2
2014-Jul-29 17:33N 34°33' E 029°01'35519.5
2014-Jul-28 23:20N 34°55' E 021°49'4333.7
2014-Jul-28 22:04N 35°30' E 021°21'25418.4
2014-Jul-28 08:16N 35°36' E 016°08'1318.1
2014-Jul-28 07:34N 35°38' E 015°53'1818.3
2014-Jul-28 06:33N 35°41' E 015°30'1918.8
2014-Jul-28 05:33N 35°44' E 015°08'1818.5
2014-Jul-28 04:34N 35°47' E 014°45'1110.8
2014-Jul-28 03:34N 35°49' E 014°32'0 0.4
2014-Jul-28 02:31N 35°49' E 014°33'0 0.0
2014-Jul-28 01:31N 35°49' E 014°33'0 0.0
2014-Jul-28 00:31N 35°49' E 014°33'0 0.0
2014-Jul-27 23:31N 35°49' E 014°33'0 0.0
2014-Jul-27 22:31N 35°49' E 014°33'0 0.0
2014-Jul-27 21:25N 35°49' E 014°33'0 0.0
2014-Jul-27 20:31N 35°49' E 014°33'0 0.0
2014-Jul-27 19:31N 35°49' E 014°33'0 0.0
2014-Jul-27 18:31N 35°49' E 014°33'0 0.0
2014-Jul-27 17:31N 35°49' E 014°33'0 0.0
2014-Jul-27 16:28N 35°49' E 014°33'0 0.0
2014-Jul-27 15:31N 35°49' E 014°33'0 0.0
2014-Jul-27 14:31N 35°49' E 014°33'0 0.0
2014-Jul-27 13:28N 35°49' E 014°33'0 0.0
2014-Jul-27 12:31N 35°49' E 014°33'0 0.0
2014-Jul-27 11:19N 35°49' E 014°33'0 0.0
2014-Jul-27 10:28N 35°49' E 014°33'0 0.0
2014-Jul-27 09:31N 35°49' E 014°33'0 0.0
2014-Jul-27 07:22N 35°49' E 014°33'4 0.6
2014-Jul-27 01:20N 35°49' E 014°37'2 0.7
2014-Jul-26 22:29N 35°51' E 014°39'0 0.0
2014-Jul-26 21:29N 35°51' E 014°39'5 5.1
2014-Jul-26 20:33N 35°49' E 014°33'1 0.7
2014-Jul-26 19:29N 35°49' E 014°33'0 0.0
2014-Jul-26 17:32N 35°49' E 014°33'0 0.0
2014-Jul-26 16:32N 35°49' E 014°33'0 0.0
2014-Jul-26 14:32N 35°49' E 014°33'0 0.0
2014-Jul-26 12:20N 35°49' E 014°33'1 1.4
2014-Jul-26 11:33N 35°49' E 014°34'4 4.4
2014-Jul-26 10:33N 35°51' E 014°39'0 0.0
2014-Jul-26 09:33N 35°51' E 014°39'0 0.1
2014-Jul-26 08:32N 35°51' E 014°39'0 0.0
2014-Jul-26 07:32N 35°51' E 014°39'0 0.1
2014-Jul-26 06:32N 35°50' E 014°39'0 0.0
2014-Jul-26 05:32N 35°50' E 014°39'0 0.1
2014-Jul-26 04:32N 35°51' E 014°39'0 0.1
2014-Jul-26 03:32N 35°51' E 014°39'0 0.1
2014-Jul-26 02:32N 35°51' E 014°39'0 0.1
2014-Jul-26 01:32N 35°51' E 014°39'0 0.0
2014-Jul-26 00:32N 35°51' E 014°39'0 0.0
2014-Jul-25 23:32N 35°51' E 014°39'0 0.0
2014-Jul-25 22:32N 35°51' E 014°39'0 0.0
2014-Jul-25 21:32N 35°51' E 014°39'0 0.0
2014-Jul-25 20:32N 35°51' E 014°39'0 0.0
2014-Jul-25 19:32N 35°51' E 014°39'2 1.8
2014-Jul-25 18:33N 35°49' E 014°38'1312.8
2014-Jul-25 17:33N 35°36' E 014°39'1515.2
2014-Jul-25 16:33N 35°21' E 014°41'1915.2
2014-Jul-25 15:17N 35°02' E 014°45'1215.5
2014-Jul-25 14:31N 34°50' E 014°47'3715.6
2014-Jul-25 12:07N 34°13' E 014°55'915.4
2014-Jul-25 11:33N 34°05' E 014°57'1515.3
2014-Jul-25 10:34N 33°50' E 015°00'1515.2
2014-Jul-25 09:33N 33°35' E 015°03'1515.3
2014-Jul-25 08:33N 33°20' E 015°06'1615.6
2014-Jul-25 07:33N 33°04' E 015°10'2215.6
2014-Jul-25 06:07N 32°42' E 015°14'915.5
2014-Jul-25 05:33N 32°33' E 015°15'1111.2
2014-Jul-25 04:34N 32°22' E 015°14'1 0.1
2014-Jul-24 22:30N 32°22' E 015°13'0 0.0
2014-Jul-24 21:33N 32°22' E 015°13'  

Dump ship's entire track history